Crane — ZR3519 — position and weather

sailwx.info

Track history (hours):
 
Tides and Currents Weather Stations Pressure Air Temp Water Temp Dewpoint Dewpoint Depression Visibility Wind Speed Wind Dir Waves Ship Positions

Crane

Last reported at 2014-Jul-20 04:21 UTC. Time now 2014-Oct-31 22:57 UTC.
Position S 29°52' E 031°03'.
Warning: this ship's position is months out of date.

MMSI: 601085000.

Date/timePositionNaut miles runAvg speedWind from/ knotsBaromVisibWave heightAir tempDewpointWater temp
2014-Jul-20 04:21S 29°52' E 031°03'  
2014-Jul-16 14:33S 29°52' E 031°03'0 0.0
2014-Jul-16 13:33S 29°52' E 031°03'0 0.0
2014-Jul-16 12:33S 29°52' E 031°03'0 0.0
2014-Jul-16 11:33S 29°52' E 031°03'0 0.0
2014-Jul-16 10:33S 29°52' E 031°03'0 0.0
2014-Jul-16 09:34S 29°52' E 031°03'0 0.0
2014-Jul-16 08:33S 29°52' E 031°03'0 0.0
2014-Jul-16 07:33S 29°52' E 031°03'  
2014-Jul-10 14:32S 29°52' E 031°01'1 1.5
2014-Jul-10 13:33S 29°53' E 031°00'0 0.0
2014-Jul-10 12:33S 29°53' E 031°00'2 2.3
2014-Jul-10 11:33S 29°52' E 031°03'1 1.2
2014-Jul-10 10:33S 29°52' E 031°04'4 3.6
2014-Jul-10 09:33S 29°54' E 031°00'  
Track history (hours):
 
Tides and Currents Weather Stations Pressure Air Temp Water Temp Dewpoint Dewpoint Depression Visibility Wind Speed Wind Dir Waves Ship Positions

Crane

Last reported at 2014-Jul-20 04:21 UTC. Time now 2014-Oct-31 22:57 UTC.
Position S 29°52' E 031°03'.
Warning: this ship's position is months out of date.

MMSI: 601085000.

Date/timePositionNaut miles runAvg speedWind from/ knotsBaromVisibWave heightAir tempDewpointWater temp
2014-Jul-20 04:21S 29°52' E 031°03'  
2014-Jul-16 14:33S 29°52' E 031°03'0 0.0
2014-Jul-16 13:33S 29°52' E 031°03'0 0.0
2014-Jul-16 12:33S 29°52' E 031°03'0 0.0
2014-Jul-16 11:33S 29°52' E 031°03'0 0.0
2014-Jul-16 10:33S 29°52' E 031°03'0 0.0
2014-Jul-16 09:34S 29°52' E 031°03'0 0.0
2014-Jul-16 08:33S 29°52' E 031°03'0 0.0
2014-Jul-16 07:33S 29°52' E 031°03'  
2014-Jul-10 14:32S 29°52' E 031°01'1 1.5
2014-Jul-10 13:33S 29°53' E 031°00'0 0.0
2014-Jul-10 12:33S 29°53' E 031°00'2 2.3
2014-Jul-10 11:33S 29°52' E 031°03'1 1.2
2014-Jul-10 10:33S 29°52' E 031°04'4 3.6
2014-Jul-10 09:33S 29°54' E 031°00'  

Dump ship's entire track history